Time;durP1;ratioP1;P1;durP2;ratioP2;P2;SDS_P1;SDS_P2;PMS_P1;PMS_P2;Temp;Humidity;BMP_temperature;BMP_pressure;BME280_temperature;BME280_humidity;BME280_pressure;Samples;Min_cycle;Max_cycle;Signal;HPM_P1;HPM_P2
2023/12/08 00:00:57;;;;;;;238.70;84.13;;;;;;;;;;6290639;28;20043;-67
2023/12/08 00:04:04;;;;;;;211.10;77.97;;;;;;;;;;6267922;28;20041;-68
2023/12/08 00:07:05;;;;;;;205.98;76.53;;;;;;;;;;6256892;28;20054;-68
2023/12/08 00:10:06;;;;;;;203.45;76.13;;;;;;;;;;6289609;28;20048;-68
2023/12/08 00:13:08;;;;;;;200.60;72.88;;;;;;;;;;6285477;28;20040;-67
2023/12/08 00:16:09;;;;;;;226.27;80.70;;;;;;;;;;6288103;28;20060;-68
2023/12/08 00:19:10;;;;;;;212.30;77.20;;;;;;;;;;6285026;28;20057;-68
2023/12/08 00:22:11;;;;;;;221.27;78.18;;;;;;;;;;6271570;28;20373;-67
2023/12/08 00:25:12;;;;;;;221.20;78.68;;;;;;;;;;6286156;28;20051;-68
2023/12/08 00:28:13;;;;;;;217.27;79.50;;;;;;;;;;6289489;28;20040;-68
2023/12/08 00:31:13;;;;;;;225.32;79.82;;;;;;;;;;6263500;28;20749;-67
2023/12/08 00:34:14;;;;;;;235.18;82.88;;;;;;;;;;6276468;28;20461;-68
2023/12/08 00:37:15;;;;;;;229.80;82.80;;;;;;;;;;6289961;28;20040;-68
2023/12/08 00:40:16;;;;;;;227.10;80.57;;;;;;;;;;6289792;28;20479;-68
2023/12/08 00:43:17;;;;;;;228.30;79.72;;;;;;;;;;6288630;28;20047;-68
2023/12/08 00:46:17;;;;;;;213.52;79.50;;;;;;;;;;6288730;28;20048;-68
2023/12/08 00:49:18;;;;;;;223.20;79.70;;;;;;;;;;6288557;28;20044;-68
2023/12/08 00:52:19;;;;;;;232.27;79.88;;;;;;;;;;6268778;28;20040;-68
2023/12/08 00:55:21;;;;;;;224.98;81.40;;;;;;;;;;6280469;28;20522;-68
2023/12/08 00:58:21;;;;;;;229.80;81.93;;;;;;;;;;6291657;28;20083;-68
2023/12/08 01:01:23;;;;;;;236.93;81.07;;;;;;;;;;6290563;28;20047;-68
2023/12/08 01:04:23;;;;;;;239.00;85.85;;;;;;;;;;6284414;28;20538;-68
2023/12/08 01:07:24;;;;;;;235.98;82.22;;;;;;;;;;6287462;28;20135;-68
2023/12/08 01:10:24;;;;;;;230.30;83.40;;;;;;;;;;6276307;28;20037;-68
2023/12/08 01:13:25;;;;;;;237.63;83.88;;;;;;;;;;6272967;28;20560;-68
2023/12/08 01:16:26;;;;;;;229.63;82.03;;;;;;;;;;6291629;28;20052;-68
2023/12/08 01:19:27;;;;;;;231.10;82.95;;;;;;;;;;6288340;28;20060;-68
2023/12/08 01:22:28;;;;;;;230.50;84.38;;;;;;;;;;6277404;28;20040;-68
2023/12/08 01:25:29;;;;;;;219.88;79.80;;;;;;;;;;6269190;28;20094;-68
2023/12/08 01:28:29;;;;;;;226.60;81.15;;;;;;;;;;6265234;28;20068;-68
2023/12/08 01:31:32;;;;;;;221.80;77.82;;;;;;;;;;6269211;28;20056;-70
2023/12/08 01:34:33;;;;;;;227.23;81.70;;;;;;;;;;6264139;28;20040;-68
2023/12/08 01:37:34;;;;;;;218.02;79.35;;;;;;;;;;6269498;28;20672;-68
2023/12/08 01:40:39;;;;;;;232.07;82.03;;;;;;;;;;6280706;28;20074;-68
2023/12/08 01:43:40;;;;;;;223.48;81.68;;;;;;;;;;6280763;28;20127;-68
2023/12/08 01:46:41;;;;;;;220.77;80.50;;;;;;;;;;6262095;28;20124;-67
2023/12/08 01:49:42;;;;;;;224.32;80.32;;;;;;;;;;6283519;28;20505;-67
2023/12/08 01:52:44;;;;;;;224.95;83.78;;;;;;;;;;6286161;28;20049;-67
2023/12/08 01:55:45;;;;;;;235.63;86.90;;;;;;;;;;6286094;28;20127;-67
2023/12/08 01:58:45;;;;;;;226.30;81.00;;;;;;;;;;6274684;28;20106;-68
2023/12/08 02:01:46;;;;;;;219.18;80.50;;;;;;;;;;6259679;28;20091;-68
2023/12/08 02:04:49;;;;;;;222.60;83.50;;;;;;;;;;6283946;28;20045;-68
2023/12/08 02:07:52;;;;;;;206.32;77.47;;;;;;;;;;6266631;28;20036;-68
2023/12/08 02:10:53;;;;;;;222.60;79.65;;;;;;;;;;6258780;28;20150;-68
2023/12/08 02:13:54;;;;;;;218.05;79.47;;;;;;;;;;6278848;28;20150;-68
2023/12/08 02:17:03;;;;;;;231.27;79.80;;;;;;;;;;6256091;28;20483;-67
2023/12/08 02:20:09;;;;;;;217.55;79.28;;;;;;;;;;6280543;28;20048;-67
2023/12/08 02:23:10;;;;;;;223.15;79.93;;;;;;;;;;6275779;28;20068;-67
2023/12/08 02:26:11;;;;;;;222.15;80.53;;;;;;;;;;6261329;28;20442;-67
2023/12/08 02:29:12;;;;;;;218.70;81.47;;;;;;;;;;6285226;28;20155;-67
2023/12/08 02:32:18;;;;;;;237.10;84.13;;;;;;;;;;6285608;28;20032;-68
2023/12/08 02:35:20;;;;;;;235.70;80.35;;;;;;;;;;6286222;28;20044;-67
2023/12/08 02:38:22;;;;;;;221.02;79.05;;;;;;;;;;6272163;28;20076;-67
2023/12/08 02:41:23;;;;;;;;;;;;;;;;;;6282954;28;20380;-67
2023/12/08 02:44:24;;;;;;;212.48;75.32;;;;;;;;;;6285273;28;20048;-67
2023/12/08 02:47:25;;;;;;;221.57;80.35;;;;;;;;;;6288814;28;20457;-67
2023/12/08 02:50:26;;;;;;;225.30;79.63;;;;;;;;;;6265724;28;20536;-68
2023/12/08 02:53:26;;;;;;;201.07;76.50;;;;;;;;;;6286153;28;20075;-67
2023/12/08 02:56:27;;;;;;;220.75;77.20;;;;;;;;;;6273238;28;20045;-67
2023/12/08 02:59:28;;;;;;;217.63;79.68;;;;;;;;;;6285144;28;20079;-67
2023/12/08 03:02:29;;;;;;;219.75;77.22;;;;;;;;;;6286907;28;20049;-68
2023/12/08 03:05:29;;;;;;;206.70;75.28;;;;;;;;;;6284078;28;20098;-67
2023/12/08 03:08:30;;;;;;;211.63;73.90;;;;;;;;;;6286938;28;20499;-68
2023/12/08 03:11:31;;;;;;;213.60;75.55;;;;;;;;;;6281015;28;20060;-67
2023/12/08 03:14:31;;;;;;;204.60;74.15;;;;;;;;;;6279985;28;20217;-67
2023/12/08 03:17:33;;;;;;;217.10;75.85;;;;;;;;;;6286400;28;20732;-68
2023/12/08 03:20:34;;;;;;;197.77;73.07;;;;;;;;;;6271402;28;20799;-67
2023/12/08 03:23:35;;;;;;;204.15;72.47;;;;;;;;;;6260513;28;20052;-67
2023/12/08 03:26:35;;;;;;;208.75;75.85;;;;;;;;;;6266091;28;20049;-67
2023/12/08 03:29:40;;;;;;;211.57;74.65;;;;;;;;;;6270590;28;20098;-67
2023/12/08 03:32:41;;;;;;;216.32;75.03;;;;;;;;;;6268401;28;20431;-67
2023/12/08 03:35:41;;;;;;;213.38;75.50;;;;;;;;;;6269106;28;20087;-67
2023/12/08 03:38:42;;;;;;;211.05;72.82;;;;;;;;;;6284263;28;20053;-68
2023/12/08 03:41:43;;;;;;;215.30;70.85;;;;;;;;;;6285505;28;20407;-68
2023/12/08 03:44:43;;;;;;;207.05;72.05;;;;;;;;;;6267705;28;20471;-68
2023/12/08 03:47:44;;;;;;;209.88;70.18;;;;;;;;;;6290502;28;20051;-68
2023/12/08 03:50:45;;;;;;;212.60;72.22;;;;;;;;;;6289260;28;20119;-67
2023/12/08 03:53:45;;;;;;;219.20;73.28;;;;;;;;;;6280375;28;20438;-68
2023/12/08 03:56:46;;;;;;;196.32;67.72;;;;;;;;;;6288447;28;20859;-67
2023/12/08 03:59:47;;;;;;;205.95;68.30;;;;;;;;;;6273597;28;20082;-68
2023/12/08 04:02:47;;;;;;;209.02;70.25;;;;;;;;;;6272460;28;20443;-68
2023/12/08 04:05:48;;;;;;;197.68;68.10;;;;;;;;;;6264145;28;20060;-67
2023/12/08 04:08:49;;;;;;;191.15;65.82;;;;;;;;;;6256223;28;20048;-68
2023/12/08 04:11:49;;;;;;;191.85;64.70;;;;;;;;;;6280546;28;20040;-68
2023/12/08 04:14:50;;;;;;;182.73;65.88;;;;;;;;;;6282650;28;20099;-67
2023/12/08 04:17:51;;;;;;;174.10;62.65;;;;;;;;;;6264712;28;20038;-68
2023/12/08 04:20:51;;;;;;;190.88;66.97;;;;;;;;;;6270283;28;20747;-67
2023/12/08 04:23:52;;;;;;;187.70;65.50;;;;;;;;;;6279987;28;20093;-67
2023/12/08 04:26:54;;;;;;;180.05;62.83;;;;;;;;;;6282684;28;20076;-67
2023/12/08 04:29:54;;;;;;;177.77;59.58;;;;;;;;;;6284333;28;20482;-67
2023/12/08 04:32:55;;;;;;;181.60;60.63;;;;;;;;;;6259130;28;20124;-68
2023/12/08 04:35:56;;;;;;;167.13;57.47;;;;;;;;;;6263994;28;20408;-67
2023/12/08 04:38:59;;;;;;;167.95;58.78;;;;;;;;;;6281906;28;20072;-67
2023/12/08 04:42:00;;;;;;;171.73;57.17;;;;;;;;;;6285663;28;20048;-67
2023/12/08 04:45:01;;;;;;;177.32;56.95;;;;;;;;;;6272637;28;20041;-67
2023/12/08 04:48:01;;;;;;;165.35;54.95;;;;;;;;;;6289197;28;20507;-67
2023/12/08 04:51:03;;;;;;;167.30;57.30;;;;;;;;;;6289056;28;20047;-67
2023/12/08 04:54:04;;;;;;;171.40;57.80;;;;;;;;;;6281246;28;20388;-67
2023/12/08 04:57:05;;;;;;;159.18;54.75;;;;;;;;;;6265287;28;20053;-68
2023/12/08 05:00:06;;;;;;;160.93;55.45;;;;;;;;;;6284401;28;20040;-67
2023/12/08 05:03:07;;;;;;;157.95;53.83;;;;;;;;;;6281636;28;20053;-67
2023/12/08 05:06:08;;;;;;;170.10;55.55;;;;;;;;;;6280142;28;20093;-67
2023/12/08 05:09:10;;;;;;;151.07;53.20;;;;;;;;;;6277782;28;20613;-68
2023/12/08 05:12:11;;;;;;;156.35;53.42;;;;;;;;;;6280892;28;20044;-68
2023/12/08 05:15:12;;;;;;;157.82;54.00;;;;;;;;;;6287515;28;20525;-67
2023/12/08 05:18:12;;;;;;;159.18;53.42;;;;;;;;;;6264696;28;20550;-67
2023/12/08 05:21:13;;;;;;;161.70;55.40;;;;;;;;;;6265932;28;20121;-65
2023/12/08 05:24:13;;;;;;;154.75;52.35;;;;;;;;;;6258758;28;20551;-67
2023/12/08 05:27:14;;;;;;;158.95;52.13;;;;;;;;;;6263671;28;20471;-67
2023/12/08 05:30:15;;;;;;;152.55;51.50;;;;;;;;;;6283498;28;20048;-67
2023/12/08 05:33:16;;;;;;;151.43;51.33;;;;;;;;;;6278939;28;20533;-68
2023/12/08 05:36:17;;;;;;;155.30;51.80;;;;;;;;;;6270631;28;20087;-68
2023/12/08 05:39:18;;;;;;;155.37;51.80;;;;;;;;;;6244342;28;20444;-67
2023/12/08 05:42:18;;;;;;;161.05;51.05;;;;;;;;;;6258405;28;20059;-67
2023/12/08 05:45:19;;;;;;;143.88;48.83;;;;;;;;;;6257246;28;20061;-67
2023/12/08 05:48:21;;;;;;;160.88;53.42;;;;;;;;;;6253660;28;21605;-67
2023/12/08 05:51:21;;;;;;;159.57;55.35;;;;;;;;;;6244263;28;20041;-69
2023/12/08 05:54:22;;;;;;;155.27;50.70;;;;;;;;;;6258330;28;20038;-68
2023/12/08 05:57:23;;;;;;;154.00;51.45;;;;;;;;;;6264306;28;20056;-68
2023/12/08 06:00:23;;;;;;;143.77;51.75;;;;;;;;;;6283670;28;20083;-68
2023/12/08 06:03:24;;;;;;;146.93;47.45;;;;;;;;;;6286770;28;20048;-67
2023/12/08 06:06:27;;;;;;;143.45;48.42;;;;;;;;;;6287211;28;20048;-68
2023/12/08 06:09:28;;;;;;;133.13;43.53;;;;;;;;;;6288957;28;20468;-68
2023/12/08 06:12:29;;;;;;;138.32;43.67;;;;;;;;;;6286999;28;20051;-68
2023/12/08 06:15:30;;;;;;;131.70;44.25;;;;;;;;;;6288989;28;20765;-67
2023/12/08 06:18:30;;;;;;;140.77;46.58;;;;;;;;;;6281127;28;20052;-67
2023/12/08 06:21:31;;;;;;;135.43;46.38;;;;;;;;;;6284278;28;20113;-67
2023/12/08 06:24:33;;;;;;;132.07;45.57;;;;;;;;;;6287953;28;20064;-67
2023/12/08 06:27:35;;;;;;;124.45;43.08;;;;;;;;;;6288675;28;20083;-67
2023/12/08 06:30:36;;;;;;;126.75;42.85;;;;;;;;;;6284948;28;20048;-68
2023/12/08 06:33:36;;;;;;;132.68;42.45;;;;;;;;;;6287430;28;20053;-68
2023/12/08 06:36:47;;;;;;;114.80;40.92;;;;;;;;;;6286179;28;20058;-68
2023/12/08 06:39:48;;;;;;;128.60;43.35;;;;;;;;;;6285288;28;20048;-68
2023/12/08 06:42:49;;;;;;;129.30;43.10;;;;;;;;;;6287918;28;20453;-67
2023/12/08 06:45:50;;;;;;;125.25;42.55;;;;;;;;;;6288033;28;20048;-67
2023/12/08 06:48:50;;;;;;;106.40;37.00;;;;;;;;;;6286731;28;20055;-68
2023/12/08 06:51:51;;;;;;;112.45;38.67;;;;;;;;;;6288241;28;20211;-68
2023/12/08 06:54:51;;;;;;;112.00;38.72;;;;;;;;;;6284593;28;20052;-68
2023/12/08 06:57:52;;;;;;;114.38;38.80;;;;;;;;;;6290161;28;20067;-67
2023/12/08 07:00:53;;;;;;;122.40;38.58;;;;;;;;;;6287391;28;20087;-68
2023/12/08 07:03:54;;;;;;;115.60;38.45;;;;;;;;;;6284835;28;20045;-68
2023/12/08 07:06:54;;;;;;;92.68;32.88;;;;;;;;;;6283854;28;20039;-68
2023/12/08 07:09:57;;;;;;;107.72;33.65;;;;;;;;;;6283534;28;20051;-68
2023/12/08 07:12:58;;;;;;;112.47;35.35;;;;;;;;;;6287365;28;20037;-68
2023/12/08 07:15:59;;;;;;;99.10;35.90;;;;;;;;;;6286588;28;20170;-68
2023/12/08 07:18:59;;;;;;;98.85;34.70;;;;;;;;;;6291528;28;20040;-68
2023/12/08 07:22:00;;;;;;;107.90;34.75;;;;;;;;;;6292528;28;20128;-68
2023/12/08 07:25:03;;;;;;;94.95;35.30;;;;;;;;;;6280282;28;20048;-68
2023/12/08 07:28:04;;;;;;;102.38;34.15;;;;;;;;;;6281306;28;20051;-68
2023/12/08 07:31:04;;;;;;;102.57;36.05;;;;;;;;;;6291519;28;20479;-67
2023/12/08 07:34:08;;;;;;;105.40;34.45;;;;;;;;;;6291817;28;20085;-68
2023/12/08 07:37:09;;;;;;;114.65;37.55;;;;;;;;;;6291449;28;20048;-67
2023/12/08 07:40:11;;;;;;;100.25;33.28;;;;;;;;;;6291746;28;20078;-68
2023/12/08 07:43:12;;;;;;;114.35;35.15;;;;;;;;;;6292960;28;20048;-67
2023/12/08 07:46:13;;;;;;;103.90;34.22;;;;;;;;;;6291506;28;20056;-69
2023/12/08 07:49:13;;;;;;;93.60;33.08;;;;;;;;;;6291097;28;20384;-68
2023/12/08 07:52:15;;;;;;;102.50;32.65;;;;;;;;;;6291568;28;20063;-67
2023/12/08 07:55:16;;;;;;;105.97;32.83;;;;;;;;;;6291721;28;20134;-69
2023/12/08 07:58:17;;;;;;;101.03;33.13;;;;;;;;;;6291801;28;20036;-69
2023/12/08 08:01:19;;;;;;;112.18;33.58;;;;;;;;;;6292954;28;20048;-67
2023/12/08 08:04:21;;;;;;;95.22;31.92;;;;;;;;;;6275242;28;20478;-66
2023/12/08 08:07:22;;;;;;;109.22;33.90;;;;;;;;;;6291543;28;20048;-68
2023/12/08 08:10:24;;;;;;;109.72;34.92;;;;;;;;;;6292677;28;20059;-68
2023/12/08 08:13:24;;;;;;;109.28;34.65;;;;;;;;;;6289343;28;20041;-68
2023/12/08 08:16:25;;;;;;;110.57;34.53;;;;;;;;;;6291051;28;20095;-68
2023/12/08 08:19:26;;;;;;;106.63;33.75;;;;;;;;;;6290163;28;20063;-68
2023/12/08 08:22:27;;;;;;;99.55;33.05;;;;;;;;;;6291153;28;20605;-67
2023/12/08 08:25:27;;;;;;;104.43;34.33;;;;;;;;;;6290210;28;20044;-68
2023/12/08 08:28:28;;;;;;;88.15;31.45;;;;;;;;;;6288906;28;20048;-67
2023/12/08 08:31:29;;;;;;;107.95;34.78;;;;;;;;;;6281204;28;20399;-67
2023/12/08 08:34:29;;;;;;;102.32;34.30;;;;;;;;;;6270992;28;20044;-68
2023/12/08 08:37:30;;;;;;;86.32;30.85;;;;;;;;;;6283673;28;20094;-68
2023/12/08 08:40:31;;;;;;;95.00;32.55;;;;;;;;;;6264240;28;20116;-68
2023/12/08 08:43:31;;;;;;;97.07;32.05;;;;;;;;;;6250408;28;20049;-68
2023/12/08 08:46:32;;;;;;;88.18;30.70;;;;;;;;;;6264335;28;20048;-68
2023/12/08 08:49:33;;;;;;;83.05;30.45;;;;;;;;;;6266973;28;20049;-68
2023/12/08 08:52:35;;;;;;;84.50;28.38;;;;;;;;;;6266100;28;20400;-68
2023/12/08 08:55:36;;;;;;;86.15;30.20;;;;;;;;;;6267954;28;20599;-68
2023/12/08 08:58:36;;;;;;;76.80;26.70;;;;;;;;;;6266708;28;20076;-67
2023/12/08 09:01:38;;;;;;;80.45;29.73;;;;;;;;;;6265628;28;20509;-68
2023/12/08 09:04:39;;;;;;;90.72;31.02;;;;;;;;;;6265819;28;20046;-68
2023/12/08 09:07:39;;;;;;;96.68;32.60;;;;;;;;;;6266872;28;20056;-68
2023/12/08 09:10:44;;;;;;;86.00;30.52;;;;;;;;;;6266079;28;20049;-68
2023/12/08 09:13:45;;;;;;;75.90;27.27;;;;;;;;;;6269606;28;20045;-69
2023/12/08 09:16:47;;;;;;;67.97;24.58;;;;;;;;;;6265171;28;20480;-67
2023/12/08 09:19:47;;;;;;;62.40;24.33;;;;;;;;;;6268110;28;20053;-67
2023/12/08 09:22:49;;;;;;;70.05;25.42;;;;;;;;;;6269303;28;20087;-68
2023/12/08 09:25:49;;;;;;;64.15;24.02;;;;;;;;;;6266521;28;20045;-68
2023/12/08 09:28:50;;;;;;;68.72;24.58;;;;;;;;;;6265067;28;20131;-68
2023/12/08 09:31:51;;;;;;;70.95;24.52;;;;;;;;;;6267165;28;20057;-67
2023/12/08 09:34:52;;;;;;;67.63;25.20;;;;;;;;;;6264667;28;20060;-67
2023/12/08 09:37:53;;;;;;;73.18;26.58;;;;;;;;;;6266589;28;20097;-68
2023/12/08 09:40:54;;;;;;;60.70;24.35;;;;;;;;;;6267037;28;20442;-68
2023/12/08 09:44:02;;;;;;;67.65;25.70;;;;;;;;;;6266991;28;20071;-68
2023/12/08 09:47:07;;;;;;;67.22;23.77;;;;;;;;;;6266197;28;20183;-68
2023/12/08 09:50:12;;;;;;;58.60;23.40;;;;;;;;;;6264129;28;20098;-68
2023/12/08 09:53:13;;;;;;;65.43;23.42;;;;;;;;;;6262664;28;20045;-68
2023/12/08 09:56:14;;;;;;;59.13;21.70;;;;;;;;;;6266254;28;20482;-68
2023/12/08 09:59:17;;;;;;;60.78;22.40;;;;;;;;;;6260875;28;20047;-68
2023/12/08 10:02:18;;;;;;;;;;;;;;;;;;6263866;28;20403;-67
2023/12/08 10:05:20;;;;;;;60.55;21.02;;;;;;;;;;6266694;28;19921;-68
2023/12/08 10:08:24;;;;;;;60.58;21.38;;;;;;;;;;6258880;28;20045;-67
2023/12/08 10:11:24;;;;;;;71.15;24.55;;;;;;;;;;6253171;28;20033;-68
2023/12/08 10:14:25;;;;;;;58.85;23.17;;;;;;;;;;6263258;28;20399;-69
2023/12/08 10:17:26;;;;;;;63.33;23.45;;;;;;;;;;6265884;28;20071;-68
2023/12/08 10:20:27;;;;;;;60.72;24.02;;;;;;;;;;6264630;28;20059;-68
2023/12/08 10:23:27;;;;;;;62.15;23.05;;;;;;;;;;6266192;28;20069;-68
2023/12/08 10:26:32;;;;;;;65.28;24.00;;;;;;;;;;6261184;28;20470;-68
2023/12/08 10:29:33;;;;;;;61.63;21.70;;;;;;;;;;6263053;28;20124;-68
2023/12/08 10:32:34;;;;;;;57.42;21.45;;;;;;;;;;6263950;28;20048;-68
2023/12/08 10:35:38;;;;;;;57.63;23.00;;;;;;;;;;6264813;28;20049;-68
2023/12/08 10:38:39;;;;;;;63.03;23.90;;;;;;;;;;6264202;28;20037;-68
2023/12/08 10:41:40;;;;;;;55.80;22.10;;;;;;;;;;6264108;28;20198;-67
2023/12/08 10:44:45;;;;;;;62.65;22.45;;;;;;;;;;6266589;28;20033;-68
2023/12/08 10:47:49;;;;;;;64.82;25.95;;;;;;;;;;6260312;28;20052;-68
2023/12/08 10:50:52;;;;;;;58.45;23.55;;;;;;;;;;6257800;28;20049;-68
2023/12/08 10:53:53;;;;;;;65.35;25.95;;;;;;;;;;6267906;28;20547;-67
2023/12/08 10:56:55;;;;;;;65.50;23.92;;;;;;;;;;6250252;28;20768;-66
2023/12/08 10:59:59;;;;;;;63.20;24.05;;;;;;;;;;6245766;28;20106;-68
2023/12/08 11:03:04;;;;;;;62.53;22.77;;;;;;;;;;6252405;28;20061;-68
2023/12/08 11:06:12;;;;;;;55.05;22.20;;;;;;;;;;6242274;28;20045;-68
2023/12/08 11:09:15;;;;;;;57.53;21.83;;;;;;;;;;6247273;28;20163;-68
2023/12/08 11:12:20;;;;;;;68.60;24.20;;;;;;;;;;6245207;28;20545;-68
2023/12/08 11:15:21;;;;;;;63.88;23.33;;;;;;;;;;6244891;28;20133;-68
2023/12/08 11:18:30;;;;;;;65.00;24.50;;;;;;;;;;6241543;28;20041;-68
2023/12/08 11:21:30;;;;;;;62.45;22.85;;;;;;;;;;6248378;28;20442;-69
2023/12/08 11:24:31;;;;;;;55.40;22.50;;;;;;;;;;6248349;28;20044;-68
2023/12/08 11:27:44;;;;;;;57.33;22.02;;;;;;;;;;6245601;28;20062;-69
2023/12/08 11:31:25;;;;;;;52.13;21.85;;;;;;;;;;6247063;28;20521;-68
2023/12/08 11:34:42;;;;;;;62.40;23.70;;;;;;;;;;6197657;28;20152;-67
2023/12/08 11:37:44;;;;;;;61.70;21.17;;;;;;;;;;6241614;28;20045;-68
2023/12/08 11:40:54;;;;;;;59.63;22.95;;;;;;;;;;6251756;28;20396;-67
2023/12/08 11:44:00;;;;;;;54.30;22.92;;;;;;;;;;6250649;28;20053;-68
2023/12/08 11:47:00;;;;;;;64.00;24.90;;;;;;;;;;6242188;28;20499;-68
2023/12/08 11:50:11;;;;;;;69.13;25.25;;;;;;;;;;6247195;28;20045;-69
2023/12/08 11:53:12;;;;;;;69.43;25.58;;;;;;;;;;6245315;28;20110;-68
2023/12/08 11:56:37;;;;;;;73.57;27.52;;;;;;;;;;6240798;28;20053;-68
2023/12/08 11:59:44;;;;;;;71.13;26.88;;;;;;;;;;6249137;28;20056;-68
2023/12/08 12:02:46;;;;;;;74.82;28.25;;;;;;;;;;6247215;28;20056;-68
2023/12/08 12:05:46;;;;;;;80.18;31.15;;;;;;;;;;6245028;28;20107;-67
2023/12/08 12:08:47;;;;;;;77.18;28.27;;;;;;;;;;6245843;28;20080;-68
2023/12/08 12:11:51;;;;;;;73.47;28.27;;;;;;;;;;6246076;28;20071;-68
2023/12/08 12:14:55;;;;;;;80.28;29.52;;;;;;;;;;6244130;28;20063;-68
2023/12/08 12:17:57;;;;;;;77.97;26.92;;;;;;;;;;6244009;28;20795;-67
2023/12/08 12:20:58;;;;;;;;;;;;;;;;;;6243505;28;20575;-67
2023/12/08 12:23:59;;;;;;;71.18;27.35;;;;;;;;;;6246281;28;19932;-64
2023/12/08 12:26:59;;;;;;;71.85;23.98;;;;;;;;;;6242370;28;20978;-68
2023/12/08 12:30:01;;;;;;;79.72;27.10;;;;;;;;;;6243279;28;20072;-68
2023/12/08 12:33:03;;;;;;;78.70;26.33;;;;;;;;;;6244896;28;20049;-66
2023/12/08 12:36:05;;;;;;;71.65;25.73;;;;;;;;;;6241398;28;20041;-68
2023/12/08 12:39:07;;;;;;;69.07;24.73;;;;;;;;;;6241553;28;20106;-68
2023/12/08 12:42:08;;;;;;;78.65;28.58;;;;;;;;;;6243144;28;20495;-67
2023/12/08 12:45:28;;;;;;;87.90;31.27;;;;;;;;;;6243641;28;20057;-68
2023/12/08 12:48:29;;;;;;;92.32;30.67;;;;;;;;;;6243963;28;20419;-68
2023/12/08 12:51:34;;;;;;;100.70;32.10;;;;;;;;;;6248981;28;20048;-68
2023/12/08 12:54:35;;;;;;;76.53;28.65;;;;;;;;;;6249082;28;20404;-67
2023/12/08 12:57:50;;;;;;;86.53;30.80;;;;;;;;;;6241035;28;20088;-69
2023/12/08 13:00:51;;;;;;;83.50;30.85;;;;;;;;;;6246868;28;20526;-67
2023/12/08 13:03:53;;;;;;;80.22;31.63;;;;;;;;;;6246336;28;20073;-69
2023/12/08 13:06:54;;;;;;;82.80;29.13;;;;;;;;;;6246583;28;20053;-68
2023/12/08 13:09:56;;;;;;;81.32;29.50;;;;;;;;;;6246893;28;21001;-67
2023/12/08 13:12:57;;;;;;;75.20;28.50;;;;;;;;;;6244620;28;20045;-69
2023/12/08 13:15:58;;;;;;;70.65;26.63;;;;;;;;;;6242625;28;20055;-67
2023/12/08 13:18:59;;;;;;;77.85;28.63;;;;;;;;;;6244614;28;20057;-69
2023/12/08 13:22:00;;;;;;;75.10;29.88;;;;;;;;;;6246660;28;20192;-68
2023/12/08 13:25:01;;;;;;;79.93;32.97;;;;;;;;;;6249215;28;20048;-69
2023/12/08 13:28:01;;;;;;;78.15;32.78;;;;;;;;;;6244879;28;20075;-68
2023/12/08 13:31:02;;;;;;;80.93;29.27;;;;;;;;;;6245410;28;20442;-69
2023/12/08 13:34:03;;;;;;;66.63;25.92;;;;;;;;;;6243473;28;20409;-67
2023/12/08 13:37:04;;;;;;;67.75;27.13;;;;;;;;;;6237982;28;20050;-67
2023/12/08 13:40:07;;;;;;;74.20;26.35;;;;;;;;;;6247900;28;20053;-67
2023/12/08 13:43:07;;;;;;;;;;;;;;;;;;6238601;28;20132;-69
2023/12/08 13:46:08;;;;;;;74.97;26.13;;;;;;;;;;6244464;28;19963;-67
2023/12/08 13:49:09;;;;;;;77.82;26.95;;;;;;;;;;6245952;28;20041;-67
2023/12/08 13:52:10;;;;;;;78.20;28.77;;;;;;;;;;6243914;28;20105;-67
2023/12/08 13:55:10;;;;;;;83.70;28.88;;;;;;;;;;6257703;28;20060;-67
2023/12/08 13:58:11;;;;;;;71.00;26.85;;;;;;;;;;6236715;28;20645;-67
2023/12/08 14:01:13;;;;;;;74.90;26.50;;;;;;;;;;6255034;28;20095;-67
2023/12/08 14:04:15;;;;;;;74.50;27.27;;;;;;;;;;6242231;28;20075;-68
2023/12/08 14:07:15;;;;;;;81.55;29.65;;;;;;;;;;6242376;28;20566;-67
2023/12/08 14:10:16;;;;;;;96.72;32.67;;;;;;;;;;6241572;28;20051;-68
2023/12/08 14:13:17;;;;;;;84.05;31.40;;;;;;;;;;6244294;28;20053;-67
2023/12/08 14:16:19;;;;;;;81.00;30.05;;;;;;;;;;6245339;28;20072;-66
2023/12/08 14:19:20;;;;;;;77.72;30.30;;;;;;;;;;6255313;28;20060;-68
2023/12/08 14:22:21;;;;;;;83.70;29.60;;;;;;;;;;6241039;28;20051;-69
2023/12/08 14:25:22;;;;;;;79.97;30.05;;;;;;;;;;6240727;28;20041;-69
2023/12/08 14:28:23;;;;;;;85.82;30.77;;;;;;;;;;6239225;28;20080;-67
2023/12/08 14:31:23;;;;;;;86.60;31.60;;;;;;;;;;6238448;28;20053;-67
2023/12/08 14:34:24;;;;;;;83.07;28.58;;;;;;;;;;6240470;28;20107;-68
2023/12/08 14:37:25;;;;;;;79.00;28.77;;;;;;;;;;6247198;28;20408;-68
2023/12/08 14:40:25;;;;;;;84.43;28.60;;;;;;;;;;6244747;28;20053;-67
2023/12/08 14:43:26;;;;;;;90.28;31.63;;;;;;;;;;6240021;28;20053;-68
2023/12/08 14:46:27;;;;;;;85.13;30.52;;;;;;;;;;6243578;28;20084;-69
2023/12/08 14:49:27;;;;;;;77.28;28.77;;;;;;;;;;6244344;28;20508;-68
2023/12/08 14:52:30;;;;;;;74.55;28.40;;;;;;;;;;6238328;28;20059;-67
2023/12/08 14:55:32;;;;;;;78.55;28.20;;;;;;;;;;6242316;28;20053;-66
2023/12/08 14:58:34;;;;;;;;;;;;;;;;;;6240801;28;20085;-68
2023/12/08 15:01:35;;;;;;;71.55;26.08;;;;;;;;;;6242262;28;19928;-67
2023/12/08 15:04:35;;;;;;;68.63;23.73;;;;;;;;;;6242045;28;20380;-68
2023/12/08 15:07:36;;;;;;;74.53;25.50;;;;;;;;;;6238708;28;20672;-69
2023/12/08 15:10:37;;;;;;;70.55;25.35;;;;;;;;;;6245561;28;20535;-66
2023/12/08 15:13:38;;;;;;;72.40;25.45;;;;;;;;;;6242336;28;20410;-65
2023/12/08 15:16:39;;;;;;;78.72;27.73;;;;;;;;;;6240471;28;20060;-69
2023/12/08 15:19:41;;;;;;;81.65;28.63;;;;;;;;;;6239272;28;20068;-67
2023/12/08 15:22:42;;;;;;;85.97;31.17;;;;;;;;;;6244184;28;20602;-68
2023/12/08 15:25:44;;;;;;;85.50;31.02;;;;;;;;;;6241904;28;20053;-66
2023/12/08 15:28:45;;;;;;;87.93;31.80;;;;;;;;;;6242605;28;20514;-68
2023/12/08 15:31:46;;;;;;;85.93;30.52;;;;;;;;;;6239828;28;20057;-68
2023/12/08 15:34:47;;;;;;;80.43;29.63;;;;;;;;;;6239119;28;20057;-68
2023/12/08 15:37:49;;;;;;;86.10;30.00;;;;;;;;;;6242401;28;20494;-67
2023/12/08 15:40:49;;;;;;;84.00;29.88;;;;;;;;;;6244815;28;20087;-66
2023/12/08 15:43:50;;;;;;;91.35;31.08;;;;;;;;;;6244611;28;20052;-68
2023/12/08 15:46:51;;;;;;;88.60;33.03;;;;;;;;;;6244108;28;20136;-64
2023/12/08 15:49:51;;;;;;;78.90;28.83;;;;;;;;;;6248047;28;20060;-66
2023/12/08 15:52:52;;;;;;;71.88;25.30;;;;;;;;;;6249838;28;20045;-64
2023/12/08 15:55:53;;;;;;;88.93;32.35;;;;;;;;;;6244554;28;20111;-64
2023/12/08 15:58:56;;;;;;;82.55;30.80;;;;;;;;;;6244718;28;20049;-66
2023/12/08 16:02:01;;;;;;;87.18;29.52;;;;;;;;;;6241541;28;20092;-69
2023/12/08 16:05:02;;;;;;;83.53;29.05;;;;;;;;;;6244063;28;20415;-67
2023/12/08 16:08:03;;;;;;;83.72;28.35;;;;;;;;;;6241808;28;20045;-69
2023/12/08 16:11:04;;;;;;;85.43;29.98;;;;;;;;;;6244813;28;20049;-68
2023/12/08 16:14:05;;;;;;;85.90;30.08;;;;;;;;;;6245961;28;20092;-68
2023/12/08 16:17:06;;;;;;;86.87;29.73;;;;;;;;;;6244235;28;20053;-69
2023/12/08 16:20:08;;;;;;;77.07;27.98;;;;;;;;;;6244319;28;20060;-67
2023/12/08 16:23:09;;;;;;;80.00;27.77;;;;;;;;;;6246284;28;20051;-69
2023/12/08 16:26:09;;;;;;;90.55;30.13;;;;;;;;;;6245543;28;20897;-67
2023/12/08 16:29:10;;;;;;;83.25;28.08;;;;;;;;;;6245255;28;20048;-68
2023/12/08 16:32:11;;;;;;;83.47;29.73;;;;;;;;;;6249550;28;20056;-65
2023/12/08 16:35:14;;;;;;;84.10;30.83;;;;;;;;;;6242819;28;20868;-68
2023/12/08 16:38:14;;;;;;;80.57;29.48;;;;;;;;;;6243539;28;20048;-68
2023/12/08 16:41:15;;;;;;;83.40;27.90;;;;;;;;;;6248158;28;20105;-68
2023/12/08 16:44:15;;;;;;;84.47;29.80;;;;;;;;;;6249138;28;20045;-70
2023/12/08 16:47:16;;;;;;;81.38;29.20;;;;;;;;;;6247770;28;20045;-68
2023/12/08 16:50:17;;;;;;;89.75;29.65;;;;;;;;;;6245925;28;20522;-70
2023/12/08 16:53:19;;;;;;;86.95;29.17;;;;;;;;;;6241414;28;21557;-71
2023/12/08 16:56:21;;;;;;;79.95;26.45;;;;;;;;;;6244381;28;20053;-67
2023/12/08 16:59:23;;;;;;;85.85;27.30;;;;;;;;;;6243994;28;20057;-68
2023/12/08 17:02:23;;;;;;;75.93;26.30;;;;;;;;;;6246486;28;20095;-62
2023/12/08 17:05:24;;;;;;;78.40;26.48;;;;;;;;;;6245311;28;20150;-71
2023/12/08 17:08:25;;;;;;;74.13;26.13;;;;;;;;;;6242816;28;20439;-69
2023/12/08 17:11:26;;;;;;;82.55;27.15;;;;;;;;;;6243551;28;20052;-69
2023/12/08 17:14:26;;;;;;;77.30;26.88;;;;;;;;;;6242320;28;20053;-70
2023/12/08 17:17:27;;;;;;;85.65;30.05;;;;;;;;;;6246392;28;20057;-67
2023/12/08 17:20:28;;;;;;;84.97;30.08;;;;;;;;;;6244180;28;20048;-68
2023/12/08 17:23:29;;;;;;;85.50;29.02;;;;;;;;;;6242201;28;20049;-71
2023/12/08 17:26:29;;;;;;;81.88;28.48;;;;;;;;;;6248677;28;20046;-70
2023/12/08 17:29:30;;;;;;;85.32;28.83;;;;;;;;;;6241882;28;20491;-66
2023/12/08 17:32:31;;;;;;;92.93;31.23;;;;;;;;;;6249892;28;20057;-67